createdAt,value
2023-02-02T00:02:08.077Z,100084.63
2023-02-02T00:04:36.585Z,100076.00
2023-02-02T00:07:05.333Z,100093.31
2023-02-02T00:09:33.280Z,100096.78
2023-02-02T00:12:01.258Z,100096.81
2023-02-02T00:14:28.399Z,100083.03
2023-02-02T00:16:57.129Z,100098.56
2023-02-02T00:19:27.626Z,100083.03
2023-02-02T00:21:55.257Z,100065.84
2023-02-02T00:24:23.183Z,100083.94
2023-02-02T00:26:53.807Z,100091.72
2023-02-02T00:29:24.207Z,100104.66
2023-02-02T00:31:52.110Z,100105.50
2023-02-02T00:34:19.405Z,100107.25
2023-02-02T00:36:48.325Z,100133.09
2023-02-02T00:39:19.453Z,100134.81
2023-02-02T00:41:47.208Z,100140.81
2023-02-02T00:44:33.267Z,100137.31
2023-02-02T00:47:00.416Z,100159.72
2023-02-02T00:49:27.326Z,100158.81
2023-02-02T00:51:54.220Z,100146.63
2023-02-02T00:54:21.173Z,100154.44
2023-02-02T00:56:48.379Z,100171.69
2023-02-02T00:59:15.276Z,100163.88
2023-02-02T01:01:42.165Z,100180.28
2023-02-02T01:04:09.063Z,100177.69
2023-02-02T01:06:36.222Z,100201.81
2023-02-02T01:09:04.364Z,100199.25
2023-02-02T01:11:31.283Z,100206.16
2023-02-02T01:13:58.327Z,100203.56
2023-02-02T01:16:25.750Z,100203.53
2023-02-02T01:18:52.988Z,100215.63
2023-02-02T01:21:20.565Z,100226.84
2023-02-02T01:23:47.945Z,100238.06
2023-02-02T01:26:16.490Z,100218.22
2023-02-02T01:28:43.537Z,100221.69
2023-02-02T01:31:14.337Z,100226.84
2023-02-02T01:33:42.325Z,100256.19
2023-02-02T01:36:13.694Z,100249.31
2023-02-02T01:38:41.050Z,100257.94
2023-02-02T01:41:12.934Z,100263.13
2023-02-02T01:43:45.421Z,100264.81
2023-02-02T01:46:21.520Z,100286.44
2023-02-02T01:49:18.852Z,100293.31
2023-02-02T01:51:58.022Z,100309.75
2023-02-02T01:54:49.466Z,100309.78
2023-02-02T01:57:25.312Z,100320.16
2023-02-02T01:59:55.222Z,100324.44
2023-02-02T02:02:25.207Z,100345.19
2023-02-02T02:04:52.301Z,100346.06
2023-02-02T02:07:19.485Z,100345.25
2023-02-02T02:09:47.009Z,100353.00
2023-02-02T02:12:15.648Z,100372.84
2023-02-02T02:15:06.168Z,100383.22
2023-02-02T02:18:20.623Z,100379.69
2023-02-02T02:21:44.925Z,100384.00
2023-02-02T02:25:13.054Z,100404.66
2023-02-02T02:28:07.448Z,100415.03
2023-02-02T02:31:31.612Z,100415.91
2023-02-02T02:34:34.181Z,100427.97
2023-02-02T02:37:11.600Z,100428.81
2023-02-02T02:39:51.143Z,100433.13
2023-02-02T02:42:23.581Z,100463.31
2023-02-02T02:44:53.472Z,100461.66
2023-02-02T02:47:20.987Z,100457.28
2023-02-02T02:49:49.649Z,100469.44
2023-02-02T02:52:16.672Z,100473.81
2023-02-02T02:54:52.017Z,100483.38
2023-02-02T02:57:42.581Z,100490.34
2023-02-02T03:00:27.883Z,100488.63
2023-02-02T03:03:30.185Z,100502.44
2023-02-02T03:06:21.948Z,100517.94
2023-02-02T03:08:55.751Z,100521.38
2023-02-02T03:11:22.900Z,100524.81
2023-02-02T03:13:49.964Z,100522.16
2023-02-02T03:16:17.400Z,100541.06
2023-02-02T03:18:44.646Z,100538.38
2023-02-02T03:21:11.938Z,100543.50
2023-02-02T03:23:39.368Z,100559.91
2023-02-02T03:26:06.948Z,100565.88
2023-02-02T03:28:34.400Z,100558.94
2023-02-02T03:31:02.139Z,100567.53
2023-02-02T03:33:31.053Z,100560.59
2023-02-02T03:35:57.928Z,100582.16
2023-02-02T03:38:24.833Z,100584.69
2023-02-02T03:40:52.252Z,100595.03
2023-02-02T03:43:23.878Z,100598.44
2023-02-02T03:46:04.890Z,100606.94
2023-02-02T03:48:36.018Z,100613.78
2023-02-02T03:51:11.667Z,100614.59
2023-02-02T03:53:40.927Z,100609.31
2023-02-02T03:56:07.847Z,100622.44
2023-02-02T03:58:35.792Z,100617.28
2023-02-02T04:01:05.311Z,100627.56
2023-02-02T04:03:32.621Z,100620.59
2023-02-02T04:05:59.738Z,100638.63
2023-02-02T04:08:26.680Z,100646.34
2023-02-02T04:10:53.591Z,100650.56
2023-02-02T04:13:20.652Z,100658.22
2023-02-02T04:15:47.698Z,100672.75
2023-02-02T04:18:14.605Z,100680.41
2023-02-02T04:20:41.479Z,100688.00
2023-02-02T04:23:08.342Z,100691.28
2023-02-02T04:25:35.243Z,100708.31
2023-02-02T04:28:02.124Z,100700.34
2023-02-02T04:30:29.024Z,100704.53
2023-02-02T04:32:56.007Z,100720.72
2023-02-02T04:35:23.167Z,100733.44
2023-02-02T04:37:50.373Z,100722.22
2023-02-02T04:40:17.314Z,100729.06
2023-02-02T04:42:45.321Z,100739.34
2023-02-02T04:45:12.213Z,100743.59
2023-02-02T04:47:39.078Z,100742.69
2023-02-02T04:50:06.635Z,100755.63
2023-02-02T04:52:33.646Z,100758.97
2023-02-02T04:55:00.551Z,100759.81
2023-02-02T04:57:27.533Z,100764.94
2023-02-02T04:59:54.444Z,100769.16
2023-02-02T05:02:21.325Z,100775.13
2023-02-02T05:04:48.283Z,100780.22
2023-02-02T05:07:15.213Z,100775.03
2023-02-02T05:09:42.116Z,100781.03
2023-02-02T05:12:09.006Z,100779.09
2023-02-02T05:14:35.954Z,100794.66
2023-02-02T05:17:02.852Z,100799.81
2023-02-02T05:19:29.803Z,100800.59
2023-02-02T05:21:56.681Z,100815.19
2023-02-02T05:24:23.577Z,100822.91
2023-02-02T05:26:50.509Z,100836.63
2023-02-02T05:29:17.416Z,100837.47
2023-02-02T05:31:44.338Z,100840.94
2023-02-02T05:34:11.566Z,100844.34
2023-02-02T05:36:38.543Z,100856.38
2023-02-02T05:39:05.644Z,100865.00
2023-02-02T05:41:32.659Z,100864.09
2023-02-02T05:44:00.121Z,100861.50
2023-02-02T05:46:27.097Z,100863.22
2023-02-02T05:48:54.103Z,100873.56
2023-02-02T05:51:29.070Z,100868.47
2023-02-02T05:53:55.959Z,100872.78
2023-02-02T05:56:22.846Z,100876.34
2023-02-02T05:58:49.914Z,100894.50
2023-02-02T06:01:18.388Z,100878.28
2023-02-02T06:03:45.636Z,100884.38
2023-02-02T06:06:13.369Z,100882.50
2023-02-02T06:08:40.248Z,100890.56
2023-02-02T06:11:16.190Z,100892.41
2023-02-02T06:13:45.848Z,100906.25
2023-02-02T06:16:13.085Z,100907.13
2023-02-02T06:18:40.060Z,100902.00
2023-02-02T06:21:07.588Z,100912.44
2023-02-02T06:23:35.097Z,100927.91
2023-02-02T06:26:04.349Z,100924.59
2023-02-02T06:28:31.966Z,100922.03
2023-02-02T06:31:05.875Z,100937.59
2023-02-02T06:33:32.998Z,100936.94
2023-02-02T06:36:05.803Z,100936.97
2023-02-02T06:38:33.141Z,100936.03
2023-02-02T06:41:00.786Z,100944.78
2023-02-02T06:43:28.517Z,100951.78
2023-02-02T06:45:57.050Z,100957.88
2023-02-02T06:48:24.050Z,100955.16
2023-02-02T06:50:50.923Z,100973.34
2023-02-02T06:53:23.127Z,100974.28
2023-02-02T06:55:58.719Z,100968.16
2023-02-02T06:58:25.586Z,100980.38
2023-02-02T07:00:52.475Z,100990.78
2023-02-02T07:03:21.535Z,100998.59
2023-02-02T07:05:51.471Z,101000.34
2023-02-02T07:08:18.389Z,100999.59
2023-02-02T07:11:13.628Z,100997.97
2023-02-02T07:13:32.181Z,101004.75
2023-02-02T07:15:59.144Z,101015.41
2023-02-02T07:18:26.091Z,101015.53
2023-02-02T07:20:53.007Z,101024.25
2023-02-02T07:23:19.891Z,101031.22
2023-02-02T07:25:46.795Z,101028.69
2023-02-02T07:28:13.668Z,101025.31
2023-02-02T07:30:40.595Z,101032.25
2023-02-02T07:33:07.502Z,101036.66
2023-02-02T07:35:35.000Z,101036.78
2023-02-02T07:38:01.879Z,101047.13
2023-02-02T07:40:28.776Z,101048.78
2023-02-02T07:42:55.821Z,101054.97
2023-02-02T07:45:27.765Z,101058.56
2023-02-02T07:47:59.217Z,101057.81
2023-02-02T07:50:28.400Z,101060.47
2023-02-02T07:52:55.540Z,101055.19
2023-02-02T07:55:22.450Z,101065.78
2023-02-02T07:57:51.992Z,101078.78
2023-02-02T08:00:19.614Z,101079.69
2023-02-02T08:02:49.494Z,101088.34
2023-02-02T08:05:16.756Z,101087.53
2023-02-02T08:07:44.667Z,101097.00
2023-02-02T08:10:11.991Z,101089.16
2023-02-02T08:12:38.913Z,101105.59
2023-02-02T08:15:06.529Z,101106.47
2023-02-02T08:17:33.653Z,101109.81
2023-02-02T08:20:00.556Z,101115.78
2023-02-02T08:22:27.451Z,101125.22
2023-02-02T08:24:54.319Z,101119.16
2023-02-02T08:27:21.184Z,101131.19
2023-02-02T08:29:48.068Z,101130.19
2023-02-02T08:32:15.004Z,101135.94
2023-02-02T08:34:41.882Z,101149.00
2023-02-02T08:37:08.763Z,101148.16
2023-02-02T08:39:36.055Z,101154.19
2023-02-02T08:42:02.919Z,101163.63
2023-02-02T08:44:51.806Z,101167.84
2023-02-02T08:47:16.602Z,101176.25
2023-02-02T08:49:44.976Z,101170.06
2023-02-02T08:52:11.829Z,101178.69
2023-02-02T08:54:38.690Z,101175.06
2023-02-02T08:57:05.702Z,101185.28
2023-02-02T08:59:32.549Z,101182.53
2023-02-02T09:01:59.415Z,101184.34
2023-02-02T09:04:26.307Z,101188.63
2023-02-02T09:06:53.149Z,101190.38
2023-02-02T09:09:19.997Z,101205.88
2023-02-02T09:11:46.853Z,101193.66
2023-02-02T09:14:14.653Z,101198.84
2023-02-02T09:16:41.718Z,101207.53
2023-02-02T09:19:10.722Z,101212.78
2023-02-02T09:21:37.702Z,101217.09
2023-02-02T09:24:13.369Z,101225.84
2023-02-02T09:26:40.721Z,101236.28
2023-02-02T09:29:11.656Z,101227.81
2023-02-02T09:31:39.173Z,101229.59
2023-02-02T09:34:09.440Z,101231.19
2023-02-02T09:36:38.221Z,101252.09
2023-02-02T09:39:06.173Z,101247.72
2023-02-02T09:41:39.135Z,101260.88
2023-02-02T09:44:39.187Z,101261.91
2023-02-02T09:47:22.934Z,101265.44
2023-02-02T09:50:20.871Z,101272.50
2023-02-02T09:53:03.402Z,101289.72
2023-02-02T09:55:45.841Z,101297.41
2023-02-02T09:58:21.529Z,101295.47
2023-02-02T10:01:04.952Z,101303.84
2023-02-02T10:04:18.894Z,101303.66
2023-02-02T10:06:49.166Z,101302.56
2023-02-02T10:09:40.835Z,101323.19
2023-02-02T10:12:47.707Z,101324.53
2023-02-02T10:15:45.538Z,101329.41
2023-02-02T10:18:23.994Z,101337.81
2023-02-02T10:21:01.479Z,101341.19
2023-02-02T10:23:36.722Z,101332.09
2023-02-02T10:26:22.788Z,101356.38
2023-02-02T10:29:19.168Z,101370.75
2023-02-02T10:32:22.519Z,101379.88
2023-02-02T10:35:29.945Z,101381.25
2023-02-02T10:38:20.781Z,101382.00
2023-02-02T10:41:07.252Z,101398.28
2023-02-02T10:44:04.135Z,101402.47
2023-02-02T10:46:42.684Z,101403.31
2023-02-02T10:49:33.574Z,101416.28
2023-02-02T10:52:15.959Z,101411.97
2023-02-02T10:54:58.412Z,101427.34
2023-02-02T10:57:51.602Z,101441.00
2023-02-02T11:00:39.085Z,101447.25
2023-02-02T11:03:07.248Z,101442.97
2023-02-02T11:05:52.994Z,101444.03
2023-02-02T11:08:25.702Z,101435.41
2023-02-02T11:10:55.067Z,101445.25
2023-02-02T11:13:31.226Z,101444.66
2023-02-02T11:16:16.555Z,101454.56
2023-02-02T11:18:44.977Z,101464.28
2023-02-02T11:21:28.958Z,101460.97
2023-02-02T11:24:06.211Z,101467.84
2023-02-02T11:26:49.052Z,101466.81
2023-02-02T11:29:22.702Z,101474.03
2023-02-02T11:31:49.664Z,101477.53
2023-02-02T11:34:25.789Z,101475.19
2023-02-02T11:37:14.449Z,101483.16
2023-02-02T11:39:42.751Z,101498.03
2023-02-02T11:42:19.008Z,101492.03
2023-02-02T11:44:56.498Z,101502.75
2023-02-02T11:47:34.090Z,101504.66
2023-02-02T11:50:04.554Z,101514.22
2023-02-02T11:52:33.932Z,101515.22
2023-02-02T11:55:09.995Z,101518.75
2023-02-02T11:57:37.279Z,101526.38
2023-02-02T12:00:19.601Z,101522.75
2023-02-02T12:02:49.119Z,101517.56
2023-02-02T12:05:21.736Z,101517.72
2023-02-02T12:07:49.357Z,101515.75
2023-02-02T12:10:52.168Z,101515.94
2023-02-02T12:13:54.142Z,101521.28
2023-02-02T12:16:40.044Z,101519.56
2023-02-02T12:20:00.739Z,101529.91
2023-02-02T12:23:00.239Z,101543.69
2023-02-02T12:25:54.929Z,101528.94
2023-02-02T12:29:20.439Z,101532.34
2023-02-02T12:32:19.424Z,101541.81
2023-02-02T12:35:29.985Z,101544.22
2023-02-02T12:38:16.403Z,101561.41
2023-02-02T12:41:06.850Z,101562.91
2023-02-02T12:43:45.811Z,101554.25
2023-02-02T12:46:23.963Z,101563.88
2023-02-02T12:49:44.263Z,101564.66
2023-02-02T12:52:39.882Z,101567.97
2023-02-02T12:55:53.813Z,101557.34
2023-02-02T12:59:00.643Z,101559.44
2023-02-02T13:01:38.712Z,101577.84
2023-02-02T13:04:57.427Z,101578.47
2023-02-02T13:07:47.739Z,101590.06
2023-02-02T13:10:19.382Z,101584.06
2023-02-02T13:13:11.529Z,101579.72
2023-02-02T13:15:46.689Z,101582.88
2023-02-02T13:18:34.217Z,101598.56
2023-02-02T13:21:06.470Z,101599.47
2023-02-02T13:23:42.818Z,101593.47
2023-02-02T13:26:20.011Z,101603.91
2023-02-02T13:29:05.541Z,101609.97
2023-02-02T13:31:56.885Z,101620.31
2023-02-02T13:34:47.134Z,101624.69
2023-02-02T13:37:37.280Z,101644.41
2023-02-02T13:40:24.378Z,101633.19
2023-02-02T13:43:42.351Z,101640.88
2023-02-02T13:46:25.289Z,101645.94
2023-02-02T13:49:29.398Z,101646.16
2023-02-02T13:52:33.061Z,101650.53
2023-02-02T13:55:40.939Z,101658.22
2023-02-02T13:58:40.217Z,101659.00
2023-02-02T14:01:11.065Z,101654.53
2023-02-02T14:03:55.730Z,101665.94
2023-02-02T14:06:27.817Z,101672.84
2023-02-02T14:09:00.754Z,101670.09
2023-02-02T14:11:32.640Z,101677.09
2023-02-02T14:14:35.339Z,101689.06
2023-02-02T14:17:19.371Z,101691.53
2023-02-02T14:19:55.537Z,101698.38
2023-02-02T14:22:48.103Z,101707.06
2023-02-02T14:25:33.198Z,101713.09
2023-02-02T14:28:03.708Z,101711.31
2023-02-02T14:30:36.176Z,101718.28
2023-02-02T14:33:21.907Z,101727.81
2023-02-02T14:35:48.656Z,101723.59
2023-02-02T14:38:35.728Z,101732.16
2023-02-02T14:41:54.742Z,101741.53
2023-02-02T14:44:21.668Z,101740.53
2023-02-02T14:46:49.312Z,101743.03
2023-02-02T14:49:20.969Z,101748.09
2023-02-02T14:51:55.648Z,101746.91
2023-02-02T14:54:27.347Z,101777.28
2023-02-02T14:56:59.400Z,101757.88
2023-02-02T14:59:39.265Z,101780.50
2023-02-02T15:02:25.615Z,101788.34
2023-02-02T15:04:52.606Z,101786.56
2023-02-02T15:07:25.374Z,101796.88
2023-02-02T15:09:56.985Z,101786.44
2023-02-02T15:12:46.025Z,101779.34
2023-02-02T15:15:25.761Z,101797.56
2023-02-02T15:18:12.727Z,101807.78
2023-02-02T15:20:48.986Z,101807.66
2023-02-02T15:23:32.053Z,101808.34
2023-02-02T15:26:20.238Z,101817.69
2023-02-02T15:29:14.577Z,101821.84
2023-02-02T15:31:50.081Z,101834.78
2023-02-02T15:34:41.289Z,101823.91
2023-02-02T15:37:14.482Z,101828.38
2023-02-02T15:39:52.418Z,101839.41
2023-02-02T15:42:46.183Z,101842.66
2023-02-02T15:45:28.274Z,101841.47
2023-02-02T15:47:58.072Z,101837.50
2023-02-02T15:50:26.908Z,101848.78
2023-02-02T15:52:55.429Z,101846.00
2023-02-02T15:55:34.361Z,101853.63
2023-02-02T15:58:02.716Z,101848.19
2023-02-02T16:00:37.976Z,101856.59
2023-02-02T16:03:29.686Z,101851.22
2023-02-02T16:05:58.014Z,101853.47
2023-02-02T16:08:34.283Z,101863.69
2023-02-02T16:11:12.406Z,101868.72
2023-02-02T16:13:41.175Z,101871.94
2023-02-02T16:16:41.669Z,101884.53
2023-02-02T16:19:08.632Z,101885.22
2023-02-02T16:21:41.084Z,101895.31
2023-02-02T16:24:25.556Z,101893.34
2023-02-02T16:26:54.672Z,101903.44
2023-02-02T16:29:22.667Z,101895.47
2023-02-02T16:31:51.004Z,101907.25
2023-02-02T16:34:38.963Z,101913.88
2023-02-02T16:37:15.303Z,101916.31
2023-02-02T16:39:42.524Z,101921.34
2023-02-02T16:42:30.504Z,101926.31
2023-02-02T16:45:01.665Z,101924.47
2023-02-02T16:47:29.527Z,101938.09
2023-02-02T16:50:08.587Z,101931.06
2023-02-02T16:52:52.254Z,101930.69
2023-02-02T16:55:21.008Z,101932.44
2023-02-02T16:57:50.064Z,101929.75
2023-02-02T17:00:25.270Z,101926.00
2023-02-02T17:03:01.394Z,101943.25
2023-02-02T17:05:46.734Z,101947.44
2023-02-02T17:08:13.925Z,101961.13
2023-02-02T17:10:43.801Z,101953.31
2023-02-02T17:13:39.716Z,101955.75
2023-02-02T17:16:06.720Z,101966.69
2023-02-02T17:18:33.849Z,101965.81
2023-02-02T17:21:07.378Z,101961.22
2023-02-02T17:23:36.904Z,101974.84
2023-02-02T17:26:07.046Z,101975.72
2023-02-02T17:28:35.099Z,101987.66
2023-02-02T17:31:15.459Z,101989.28
2023-02-02T17:33:45.425Z,101982.34
2023-02-02T17:36:15.409Z,101991.63
2023-02-02T17:38:42.326Z,101993.31
2023-02-02T17:41:12.796Z,101980.00
2023-02-02T17:43:39.690Z,101990.72
2023-02-02T17:46:10.481Z,101988.63
2023-02-02T17:48:37.384Z,101985.78
2023-02-02T17:51:07.075Z,101993.31
2023-02-02T17:53:34.548Z,101990.50
2023-02-02T17:56:01.468Z,101991.13
2023-02-02T17:58:28.361Z,101993.59
2023-02-02T18:00:58.928Z,101995.16
2023-02-02T18:03:32.460Z,101988.97
2023-02-02T18:06:01.700Z,101994.75
2023-02-02T18:08:30.320Z,102000.78
2023-02-02T18:10:57.769Z,101997.22
2023-02-02T18:13:25.229Z,101987.75
2023-02-02T18:15:53.959Z,101995.38
2023-02-02T18:18:20.910Z,101991.91
2023-02-02T18:20:50.266Z,101994.44
2023-02-02T18:23:18.744Z,101987.50
2023-02-02T18:25:45.829Z,101996.03
2023-02-02T18:28:17.253Z,101991.66
2023-02-02T18:30:46.637Z,101990.69
2023-02-02T18:33:17.910Z,101992.38
2023-02-02T18:35:47.355Z,101994.03
2023-02-02T18:38:14.995Z,101998.31
2023-02-02T18:40:42.114Z,101981.72
2023-02-02T18:43:09.058Z,101986.94
2023-02-02T18:45:36.910Z,101986.88
2023-02-02T18:48:04.030Z,101994.50
2023-02-02T18:50:30.998Z,101990.97
2023-02-02T18:52:57.976Z,101994.25
2023-02-02T18:55:25.341Z,101995.06
2023-02-02T18:57:52.705Z,101994.03
2023-02-02T19:00:21.935Z,101990.56
2023-02-02T19:02:48.845Z,101989.63
2023-02-02T19:05:34.165Z,101985.16
2023-02-02T19:08:03.366Z,101988.53
2023-02-02T19:10:30.260Z,101991.94
2023-02-02T19:13:15.735Z,101989.97
2023-02-02T19:15:42.724Z,101988.28
2023-02-02T19:18:19.474Z,101991.66
2023-02-02T19:20:47.203Z,101988.22
2023-02-02T19:23:18.339Z,101989.00
2023-02-02T19:25:53.900Z,101995.94
2023-02-02T19:28:29.979Z,101995.84
2023-02-02T19:31:00.862Z,101998.41
2023-02-02T19:33:51.078Z,101992.38
2023-02-02T19:36:23.052Z,101992.38
2023-02-02T19:38:55.477Z,102000.19
2023-02-02T19:41:25.407Z,102005.25
2023-02-02T19:43:58.628Z,101991.66
2023-02-02T19:46:28.058Z,101989.09
2023-02-02T19:49:36.327Z,101986.44
2023-02-02T19:52:04.198Z,102002.53
2023-02-02T19:54:39.521Z,101995.84
2023-02-02T19:57:21.179Z,101987.09
2023-02-02T19:59:50.882Z,101989.00
2023-02-02T20:02:48.977Z,101985.44
2023-02-02T20:05:21.259Z,101967.94
2023-02-02T20:07:56.081Z,101971.63
2023-02-02T20:10:35.677Z,101983.53
2023-02-02T20:13:22.567Z,101978.28
2023-02-02T20:15:54.690Z,101973.06
2023-02-02T20:18:45.464Z,101968.53
2023-02-02T20:21:25.648Z,101972.72
2023-02-02T20:23:52.645Z,101972.41
2023-02-02T20:26:26.399Z,101968.19
2023-02-02T20:28:56.694Z,101976.72
2023-02-02T20:31:35.031Z,101979.19
2023-02-02T20:34:02.201Z,101971.47
2023-02-02T20:36:39.925Z,101974.78
2023-02-02T20:39:26.872Z,101972.41
2023-02-02T20:41:56.597Z,101977.44
2023-02-02T20:44:25.765Z,101980.84
2023-02-02T20:46:55.278Z,101979.84
2023-02-02T20:49:25.536Z,101982.31
2023-02-02T20:51:57.479Z,101979.50
2023-02-02T20:54:25.222Z,101977.63
2023-02-02T20:56:52.790Z,101957.06
2023-02-02T20:59:20.182Z,101977.47
2023-02-02T21:01:49.786Z,101973.91
2023-02-02T21:04:17.987Z,101975.63
2023-02-02T21:06:46.332Z,101970.31
2023-02-02T21:09:13.230Z,101977.22
2023-02-02T21:11:40.109Z,101975.44
2023-02-02T21:14:07.338Z,101975.50
2023-02-02T21:16:34.254Z,101971.28
2023-02-02T21:19:01.244Z,101971.34
2023-02-02T21:21:28.332Z,101968.00
2023-02-02T21:23:56.278Z,101965.41
2023-02-02T21:26:27.096Z,101969.03
2023-02-02T21:28:54.300Z,101966.63
2023-02-02T21:31:21.249Z,101958.19
2023-02-02T21:33:50.566Z,101951.56
2023-02-02T21:36:31.771Z,101955.09
2023-02-02T21:39:24.806Z,101938.03
2023-02-02T21:42:10.773Z,101941.69
2023-02-02T21:44:42.689Z,101926.97
2023-02-02T21:47:34.459Z,101922.22
2023-02-02T21:50:16.602Z,101918.94
2023-02-02T21:52:43.835Z,101918.22
2023-02-02T21:55:37.409Z,101918.22
2023-02-02T21:58:42.081Z,101913.06
2023-02-02T22:01:22.115Z,101907.09
2023-02-02T22:03:50.952Z,101913.22
2023-02-02T22:06:30.886Z,101907.09
2023-02-02T22:09:15.923Z,101904.78
2023-02-02T22:11:59.160Z,101904.06
2023-02-02T22:14:39.677Z,101895.56
2023-02-02T22:17:40.613Z,101892.06
2023-02-02T22:20:31.328Z,101892.88
2023-02-02T22:22:58.262Z,101892.88
2023-02-02T22:25:33.487Z,101897.16
2023-02-02T22:28:11.203Z,101892.16
2023-02-02T22:30:40.522Z,101895.72
2023-02-02T22:33:13.075Z,101887.16
2023-02-02T22:35:41.694Z,101895.75
2023-02-02T22:38:09.291Z,101901.00
2023-02-02T22:40:36.439Z,101898.53
2023-02-02T22:43:06.548Z,101898.59
2023-02-02T22:45:34.651Z,101895.28
2023-02-02T22:48:01.823Z,101892.72
2023-02-02T22:50:31.197Z,101887.66
2023-02-02T22:52:58.559Z,101887.81
2023-02-02T22:55:25.697Z,101888.69
2023-02-02T22:57:52.835Z,101886.38
2023-02-02T23:00:24.328Z,101888.22
2023-02-02T23:02:52.453Z,101875.34
2023-02-02T23:05:20.730Z,101871.25
2023-02-02T23:07:48.925Z,101868.78
2023-02-02T23:10:23.021Z,101860.50
2023-02-02T23:12:51.351Z,101859.34
2023-02-02T23:15:19.281Z,101868.44
2023-02-02T23:17:46.266Z,101871.19
2023-02-02T23:20:14.217Z,101858.38
2023-02-02T23:22:41.093Z,101860.16
2023-02-02T23:25:08.641Z,101854.19
2023-02-02T23:27:35.574Z,101851.69
2023-02-02T23:30:02.692Z,101842.28
2023-02-02T23:32:29.582Z,101832.94
2023-02-02T23:34:56.475Z,101817.53
2023-02-02T23:37:23.353Z,101805.53
2023-02-02T23:39:50.245Z,101788.97
2023-02-02T23:42:17.120Z,101791.91
2023-02-02T23:44:44.006Z,101782.59
2023-02-02T23:47:11.052Z,101771.50
2023-02-02T23:49:38.473Z,101756.03
2023-02-02T23:52:06.133Z,101736.94
2023-02-02T23:54:33.630Z,101731.94
2023-02-02T23:57:00.780Z,101726.00
2023-02-02T23:59:27.663Z,101719.06
